Time;durP1;ratioP1;P1;durP2;ratioP2;P2;SDS_P1;SDS_P2;PMS_P1;PMS_P2;Temp;Humidity;BMP_temperature;BMP_pressure;BME280_temperature;BME280_humidity;BME280_pressure;Samples;Min_cycle;Max_cycle;Signal;HPM_P1;HPM_P2
2021/11/18 00:01:02;;;;;;;11.27;10.18;;;;;;;;;;4984438;28;25216;-70
2021/11/18 00:03:28;;;;;;;11.10;10.00;;;;;;;;;;4979891;28;24425;-69
2021/11/18 00:05:53;;;;;;;11.37;10.17;;;;;;;;;;4981987;28;24755;-70
2021/11/18 00:08:19;;;;;;;9.87;8.90;;;;;;;;;;4983495;28;24397;-70
2021/11/18 00:10:44;;;;;;;12.57;11.00;;;;;;;;;;4984929;28;24405;-70
2021/11/18 00:13:10;;;;;;;11.15;9.95;;;;;;;;;;4980985;28;24424;-70
2021/11/18 00:15:35;;;;;;;11.90;10.77;;;;;;;;;;4978719;28;24429;-69
2021/11/18 00:18:05;;;;;;;10.50;9.50;;;;;;;;;;4982913;28;24445;-70
2021/11/18 00:20:32;;;;;;;10.38;9.30;;;;;;;;;;4981683;28;24420;-69
2021/11/18 00:22:57;;;;;;;10.93;9.93;;;;;;;;;;4981971;28;24915;-70
2021/11/18 00:25:23;;;;;;;10.47;9.47;;;;;;;;;;4977610;28;24486;-71
2021/11/18 00:27:48;;;;;;;11.40;10.30;;;;;;;;;;4980748;28;24408;-70
2021/11/18 00:30:13;;;;;;;10.10;9.20;;;;;;;;;;4984158;28;24437;-71
2021/11/18 00:32:39;;;;;;;9.48;8.55;;;;;;;;;;4980032;28;24467;-73
2021/11/18 00:35:05;;;;;;;10.40;9.40;;;;;;;;;;4989969;28;25021;-72
2021/11/18 00:37:30;;;;;;;11.10;9.95;;;;;;;;;;4986004;28;24442;-71
2021/11/18 00:39:55;;;;;;;10.20;9.20;;;;;;;;;;4982706;28;25062;-71
2021/11/18 00:42:20;;;;;;;11.23;10.10;;;;;;;;;;4982267;28;24436;-70
2021/11/18 00:44:46;;;;;;;11.00;9.90;;;;;;;;;;4982152;28;24548;-71
2021/11/18 00:47:11;;;;;;;10.70;9.00;;;;;;;;;;4980632;28;24499;-71
2021/11/18 00:49:36;;;;;;;10.10;9.10;;;;;;;;;;4986400;28;25008;-71
2021/11/18 00:52:01;;;;;;;10.27;9.27;;;;;;;;;;4986610;28;24425;-70
2021/11/18 00:54:26;;;;;;;9.17;8.27;;;;;;;;;;4981030;28;24699;-69
2021/11/18 00:56:51;;;;;;;9.02;8.07;;;;;;;;;;4985807;28;24413;-70
2021/11/18 00:59:17;;;;;;;11.18;9.80;;;;;;;;;;4978885;28;24429;-70
2021/11/18 01:01:44;;;;;;;10.00;9.00;;;;;;;;;;4990402;28;24985;-70
2021/11/18 01:04:14;;;;;;;10.60;9.50;;;;;;;;;;4992610;28;25004;-71
2021/11/18 01:06:39;;;;;;;10.90;9.90;;;;;;;;;;4980467;28;24428;-72
2021/11/18 01:09:05;;;;;;;10.57;9.50;;;;;;;;;;4985372;28;24416;-71
2021/11/18 01:11:32;;;;;;;8.93;8.03;;;;;;;;;;4979220;28;24417;-71
2021/11/18 01:13:57;;;;;;;8.73;7.93;;;;;;;;;;4983560;28;24452;-71
2021/11/18 01:16:24;;;;;;;8.93;8.13;;;;;;;;;;4982086;28;25033;-72
2021/11/18 01:18:50;;;;;;;9.55;8.40;;;;;;;;;;4978253;28;24427;-71
2021/11/18 01:21:15;;;;;;;9.13;8.23;;;;;;;;;;4980879;28;25081;-72
2021/11/18 01:23:41;;;;;;;9.60;8.60;;;;;;;;;;4977750;28;24934;-73
2021/11/18 01:26:09;;;;;;;8.77;7.88;;;;;;;;;;4981590;28;24432;-72
2021/11/18 01:28:35;;;;;;;8.93;8.13;;;;;;;;;;4981517;28;25028;-71
2021/11/18 01:31:00;;;;;;;8.30;7.60;;;;;;;;;;4989143;28;24989;-71
2021/11/18 01:33:26;;;;;;;8.67;7.70;;;;;;;;;;4985592;28;25091;-71
2021/11/18 01:35:51;;;;;;;8.00;7.20;;;;;;;;;;4977451;28;24421;-71
2021/11/18 01:38:17;;;;;;;7.87;7.07;;;;;;;;;;4981195;28;24863;-70
2021/11/18 01:40:45;;;;;;;8.73;7.83;;;;;;;;;;4988159;28;25008;-70
2021/11/18 01:43:11;;;;;;;7.60;6.80;;;;;;;;;;4985943;28;24409;-72
2021/11/18 01:45:37;;;;;;;8.43;7.63;;;;;;;;;;4979786;28;25000;-69
2021/11/18 01:48:03;;;;;;;9.60;7.75;;;;;;;;;;4977091;28;24433;-70
2021/11/18 01:50:29;;;;;;;9.43;7.90;;;;;;;;;;4977277;28;24455;-71
2021/11/18 01:52:55;;;;;;;9.32;8.30;;;;;;;;;;4976723;28;24500;-71
2021/11/18 01:55:21;;;;;;;11.40;7.97;;;;;;;;;;4992763;28;24474;-70
2021/11/18 01:57:47;;;;;;;8.70;7.20;;;;;;;;;;4982182;28;24429;-71
2021/11/18 02:00:16;;;;;;;8.38;7.47;;;;;;;;;;4981348;28;24421;-70
2021/11/18 02:02:41;;;;;;;8.48;7.57;;;;;;;;;;4981545;28;24846;-70
2021/11/18 02:05:15;;;;;;;8.40;7.60;;;;;;;;;;4976958;28;24407;-71
2021/11/18 02:07:42;;;;;;;8.68;7.43;;;;;;;;;;4984433;28;24409;-71
2021/11/18 02:10:08;;;;;;;8.82;7.88;;;;;;;;;;4980728;28;24958;-70
2021/11/18 02:12:33;;;;;;;10.35;8.52;;;;;;;;;;4976249;28;24409;-70
2021/11/18 02:14:59;;;;;;;9.63;7.67;;;;;;;;;;4977415;28;24626;-70
2021/11/18 02:17:25;;;;;;;8.30;7.50;;;;;;;;;;4989429;28;24744;-71
2021/11/18 02:19:57;;;;;;;8.52;7.03;;;;;;;;;;4980048;28;24416;-71
2021/11/18 02:22:23;;;;;;;8.23;7.43;;;;;;;;;;4980818;28;25118;-72
2021/11/18 02:24:50;;;;;;;8.77;7.88;;;;;;;;;;4985787;28;24413;-71
2021/11/18 02:27:18;;;;;;;8.40;7.50;;;;;;;;;;4986636;28;24424;-72
2021/11/18 02:29:44;;;;;;;7.95;7.15;;;;;;;;;;4978813;28;24405;-71
2021/11/18 02:32:10;;;;;;;7.32;6.53;;;;;;;;;;4984333;28;24445;-72
2021/11/18 02:34:48;;;;;;;9.55;7.93;;;;;;;;;;4985295;28;24547;-72
2021/11/18 02:37:13;;;;;;;8.27;7.18;;;;;;;;;;4979020;28;24783;-73
2021/11/18 02:39:38;;;;;;;8.20;7.40;;;;;;;;;;4975945;28;25014;-71
2021/11/18 02:42:05;;;;;;;8.13;7.33;;;;;;;;;;4976751;28;25173;-72
2021/11/18 02:44:31;;;;;;;9.02;7.70;;;;;;;;;;4981607;28;24499;-72
2021/11/18 02:46:57;;;;;;;9.05;7.80;;;;;;;;;;4993764;28;24432;-71
2021/11/18 02:49:22;;;;;;;8.85;7.95;;;;;;;;;;4986542;28;24409;-71
2021/11/18 02:51:47;;;;;;;8.60;7.70;;;;;;;;;;4980674;28;24476;-71
2021/11/18 02:54:12;;;;;;;8.80;7.90;;;;;;;;;;4981719;28;25124;-72
2021/11/18 02:56:38;;;;;;;9.50;8.50;;;;;;;;;;4982369;28;24436;-71
2021/11/18 02:59:03;;;;;;;10.25;8.15;;;;;;;;;;4985883;28;24768;-71
2021/11/18 03:01:31;;;;;;;9.90;8.90;;;;;;;;;;4982243;28;24444;-71
2021/11/18 03:03:57;;;;;;;9.25;8.23;;;;;;;;;;4980414;28;24424;-71
2021/11/18 03:06:22;;;;;;;9.18;8.27;;;;;;;;;;4983863;28;24674;-71
2021/11/18 03:08:48;;;;;;;10.40;8.57;;;;;;;;;;4984591;28;24409;-71
2021/11/18 03:11:14;;;;;;;8.65;7.80;;;;;;;;;;4987292;28;24409;-71
2021/11/18 03:13:39;;;;;;;9.38;8.20;;;;;;;;;;4979828;28;24479;-71
2021/11/18 03:16:05;;;;;;;8.90;7.97;;;;;;;;;;4985234;28;24460;-71
2021/11/18 03:18:30;;;;;;;9.77;8.70;;;;;;;;;;4981664;28;24467;-71
2021/11/18 03:20:56;;;;;;;9.93;8.90;;;;;;;;;;4985895;28;24498;-71
2021/11/18 03:23:22;;;;;;;9.30;8.15;;;;;;;;;;4982858;28;24566;-71
2021/11/18 03:25:48;;;;;;;9.40;8.50;;;;;;;;;;4985065;28;24744;-71
2021/11/18 03:28:14;;;;;;;9.13;8.23;;;;;;;;;;4989178;28;24523;-71
2021/11/18 03:30:41;;;;;;;8.65;7.63;;;;;;;;;;4980286;28;24457;-72
2021/11/18 03:33:10;;;;;;;8.68;7.88;;;;;;;;;;4981580;28;25197;-71
2021/11/18 03:35:35;;;;;;;8.93;8.13;;;;;;;;;;4983798;28;24516;-71
2021/11/18 03:38:01;;;;;;;9.65;8.60;;;;;;;;;;4985386;28;24488;-70
2021/11/18 03:40:26;;;;;;;10.27;8.33;;;;;;;;;;4994634;28;24413;-70
2021/11/18 03:42:52;;;;;;;8.63;7.78;;;;;;;;;;4982061;28;24503;-69
2021/11/18 03:45:18;;;;;;;8.07;7.25;;;;;;;;;;4978343;28;24424;-69
2021/11/18 03:47:43;;;;;;;9.10;7.68;;;;;;;;;;4987710;28;24636;-69
2021/11/18 03:50:09;;;;;;;8.80;7.90;;;;;;;;;;4983014;28;24939;-69
2021/11/18 03:52:34;;;;;;;9.80;8.50;;;;;;;;;;4982448;28;24432;-69
2021/11/18 03:54:59;;;;;;;9.45;8.45;;;;;;;;;;4982386;28;24903;-69
2021/11/18 03:57:25;;;;;;;9.07;8.18;;;;;;;;;;4978889;28;24468;-69
2021/11/18 03:59:50;;;;;;;8.30;7.50;;;;;;;;;;4978067;28;24432;-70
2021/11/18 04:02:16;;;;;;;9.23;8.33;;;;;;;;;;4990659;28;24472;-71
2021/11/18 04:04:43;;;;;;;9.43;8.38;;;;;;;;;;5000150;28;24414;-71
2021/11/18 04:07:10;;;;;;;8.10;6.80;;;;;;;;;;4981525;28;24413;-71
2021/11/18 04:09:35;;;;;;;8.80;7.90;;;;;;;;;;4975999;28;24564;-71
2021/11/18 04:12:01;;;;;;;8.10;7.30;;;;;;;;;;4990667;28;24459;-71
2021/11/18 04:14:27;;;;;;;8.50;7.70;;;;;;;;;;4982111;28;24426;-71
2021/11/18 04:16:52;;;;;;;8.85;7.95;;;;;;;;;;4981062;28;24931;-71
2021/11/18 04:19:17;;;;;;;8.32;7.43;;;;;;;;;;4978473;28;24440;-71
2021/11/18 04:21:43;;;;;;;8.80;7.90;;;;;;;;;;4983041;28;24950;-72
2021/11/18 04:24:10;;;;;;;7.75;7.03;;;;;;;;;;4988081;28;24424;-70
2021/11/18 04:26:36;;;;;;;9.07;8.18;;;;;;;;;;4982211;28;24500;-70
2021/11/18 04:29:01;;;;;;;9.27;7.32;;;;;;;;;;4979595;28;24496;-72
2021/11/18 04:31:30;;;;;;;8.67;7.73;;;;;;;;;;4978790;28;24420;-72
2021/11/18 04:33:55;;;;;;;7.55;6.85;;;;;;;;;;4987818;28;24551;-73
2021/11/18 04:36:21;;;;;;;8.25;7.45;;;;;;;;;;4994751;28;24512;-73
2021/11/18 04:38:47;;;;;;;8.48;7.68;;;;;;;;;;4985658;28;24424;-74
2021/11/18 04:41:13;;;;;;;7.10;6.40;;;;;;;;;;4981722;28;24440;-73
2021/11/18 04:43:39;;;;;;;7.88;7.15;;;;;;;;;;4978633;28;24401;-73
2021/11/18 04:46:07;;;;;;;7.38;6.25;;;;;;;;;;4979625;28;24560;-74
2021/11/18 04:48:33;;;;;;;10.02;6.78;;;;;;;;;;4988689;28;24409;-74
2021/11/18 04:50:58;;;;;;;8.70;6.93;;;;;;;;;;4983311;28;24421;-73
2021/11/18 04:53:26;;;;;;;7.30;6.40;;;;;;;;;;4982038;28;24438;-73
2021/11/18 04:55:51;;;;;;;7.80;6.90;;;;;;;;;;4982668;28;24493;-74
2021/11/18 04:58:16;;;;;;;8.27;6.57;;;;;;;;;;4980003;28;24429;-74
2021/11/18 05:00:45;;;;;;;8.03;6.70;;;;;;;;;;4983683;28;24409;-73
2021/11/18 05:03:11;;;;;;;7.55;6.70;;;;;;;;;;4981035;28;24464;-73
2021/11/18 05:05:36;;;;;;;7.05;6.35;;;;;;;;;;4981601;28;25037;-73
2021/11/18 05:08:01;;;;;;;7.68;6.20;;;;;;;;;;4992309;28;24427;-72
2021/11/18 05:10:27;;;;;;;8.60;7.30;;;;;;;;;;4977290;28;24974;-73
2021/11/18 05:12:53;;;;;;;7.60;6.90;;;;;;;;;;4983224;28;24448;-72
2021/11/18 05:15:20;;;;;;;7.10;6.20;;;;;;;;;;4991106;28;24824;-72
2021/11/18 05:17:45;;;;;;;8.35;7.20;;;;;;;;;;4983348;28;24425;-72
2021/11/18 05:20:11;;;;;;;8.02;7.22;;;;;;;;;;4982660;28;24439;-72
2021/11/18 05:22:36;;;;;;;8.17;6.60;;;;;;;;;;4994299;28;24520;-74
2021/11/18 05:25:01;;;;;;;7.67;6.70;;;;;;;;;;4985323;28;24413;-74
2021/11/18 05:27:26;;;;;;;8.40;7.27;;;;;;;;;;4992285;28;24479;-73
2021/11/18 05:29:51;;;;;;;7.95;6.50;;;;;;;;;;4983352;28;24406;-73
2021/11/18 05:32:17;;;;;;;8.67;7.00;;;;;;;;;;4973928;28;24424;-71
2021/11/18 05:34:43;;;;;;;8.27;6.90;;;;;;;;;;4980275;28;24424;-73
2021/11/18 05:37:08;;;;;;;8.00;7.18;;;;;;;;;;4983084;28;25038;-72
2021/11/18 05:39:33;;;;;;;7.78;6.50;;;;;;;;;;4980311;28;24427;-73
2021/11/18 05:41:59;;;;;;;9.27;7.30;;;;;;;;;;4979087;28;24994;-72
2021/11/18 05:44:24;;;;;;;7.83;6.57;;;;;;;;;;4975319;28;24433;-71
2021/11/18 05:46:49;;;;;;;9.80;7.00;;;;;;;;;;4980710;28;24440;-71
2021/11/18 05:49:14;;;;;;;8.93;6.77;;;;;;;;;;4981273;28;24452;-70
2021/11/18 05:51:39;;;;;;;7.33;6.50;;;;;;;;;;4978862;28;24594;-71
2021/11/18 05:54:08;;;;;;;9.30;7.32;;;;;;;;;;4979703;28;24803;-70
2021/11/18 05:56:34;;;;;;;7.05;6.30;;;;;;;;;;4978107;28;24447;-71
2021/11/18 05:58:59;;;;;;;9.77;6.53;;;;;;;;;;4975195;28;25009;-71
2021/11/18 06:01:26;;;;;;;8.43;6.70;;;;;;;;;;4976959;28;24715;-71
2021/11/18 06:03:52;;;;;;;6.60;5.75;;;;;;;;;;4987423;28;24479;-70
2021/11/18 06:06:17;;;;;;;8.13;6.30;;;;;;;;;;4977966;28;24420;-70
2021/11/18 06:08:42;;;;;;;7.60;6.10;;;;;;;;;;4975330;28;24416;-70
2021/11/18 06:11:08;;;;;;;7.63;6.40;;;;;;;;;;4986532;28;24527;-71
2021/11/18 06:13:33;;;;;;;8.50;6.40;;;;;;;;;;4985427;28;24413;-70
2021/11/18 06:15:59;;;;;;;7.10;5.97;;;;;;;;;;4985108;28;24445;-70
2021/11/18 06:18:24;;;;;;;8.82;6.50;;;;;;;;;;4980678;28;24508;-70
2021/11/18 06:20:49;;;;;;;7.40;5.72;;;;;;;;;;4976110;28;24436;-71
2021/11/18 06:23:15;;;;;;;7.00;6.30;;;;;;;;;;4980756;28;25090;-70
2021/11/18 06:25:41;;;;;;;6.90;6.13;;;;;;;;;;4999704;28;24434;-70
2021/11/18 06:28:07;;;;;;;7.95;5.85;;;;;;;;;;4996908;28;24496;-70
2021/11/18 06:30:34;;;;;;;6.57;5.87;;;;;;;;;;4980752;28;24459;-70
2021/11/18 06:32:59;;;;;;;7.63;5.80;;;;;;;;;;4980667;28;24444;-71
2021/11/18 06:35:25;;;;;;;7.50;6.00;;;;;;;;;;4981692;28;24449;-70
2021/11/18 06:37:50;;;;;;;6.90;6.20;;;;;;;;;;4984849;28;24389;-71
2021/11/18 06:40:16;;;;;;;6.75;5.80;;;;;;;;;;4986515;28;24475;-71
2021/11/18 06:42:42;;;;;;;8.30;5.78;;;;;;;;;;4980801;28;24433;-71
2021/11/18 06:45:08;;;;;;;9.65;6.70;;;;;;;;;;4982824;28;24578;-70
2021/11/18 06:47:33;;;;;;;8.87;6.30;;;;;;;;;;4982712;28;25106;-70
2021/11/18 06:49:58;;;;;;;7.80;5.90;;;;;;;;;;4982767;28;24556;-71
2021/11/18 06:52:24;;;;;;;7.13;5.82;;;;;;;;;;4980966;28;24436;-71
2021/11/18 06:54:49;;;;;;;8.07;5.60;;;;;;;;;;4988269;28;24441;-71
2021/11/18 06:57:15;;;;;;;7.17;5.50;;;;;;;;;;4981587;28;24439;-72
2021/11/18 06:59:40;;;;;;;9.30;6.20;;;;;;;;;;4991364;28;24973;-71
2021/11/18 07:02:05;;;;;;;6.60;5.20;;;;;;;;;;4977122;28;24437;-71
2021/11/18 07:04:31;;;;;;;6.40;5.37;;;;;;;;;;4969290;28;24950;-71
2021/11/18 07:06:56;;;;;;;8.93;5.90;;;;;;;;;;4982964;28;24488;-70
2021/11/18 07:09:21;;;;;;;9.80;6.17;;;;;;;;;;4972436;28;24475;-71
2021/11/18 07:11:46;;;;;;;7.57;5.43;;;;;;;;;;4981179;28;25040;-71
2021/11/18 07:14:11;;;;;;;6.30;5.00;;;;;;;;;;4978587;28;24435;-70
2021/11/18 07:16:37;;;;;;;8.50;5.03;;;;;;;;;;4977958;28;24425;-71
2021/11/18 07:19:05;;;;;;;5.73;4.63;;;;;;;;;;4982222;28;24431;-71
2021/11/18 07:21:32;;;;;;;8.48;5.10;;;;;;;;;;4976100;28;24441;-71
2021/11/18 07:23:58;;;;;;;8.30;4.90;;;;;;;;;;4978990;28;24491;-71
2021/11/18 07:26:23;;;;;;;7.40;5.00;;;;;;;;;;4981349;28;24519;-71
2021/11/18 07:28:49;;;;;;;6.87;5.20;;;;;;;;;;4980181;28;24524;-71
2021/11/18 07:31:14;;;;;;;7.50;5.05;;;;;;;;;;4980987;28;24811;-71
2021/11/18 07:33:39;;;;;;;5.20;4.30;;;;;;;;;;4985123;28;24781;-72
2021/11/18 07:36:05;;;;;;;5.93;4.87;;;;;;;;;;4990495;28;24448;-71
2021/11/18 07:38:31;;;;;;;8.10;5.00;;;;;;;;;;4976608;28;25002;-71
2021/11/18 07:40:57;;;;;;;7.18;4.60;;;;;;;;;;4977268;28;25319;-72
2021/11/18 07:43:23;;;;;;;6.80;4.20;;;;;;;;;;4976297;28;24931;-72
2021/11/18 07:45:50;;;;;;;7.22;4.50;;;;;;;;;;4981616;28;24974;-72
2021/11/18 07:48:15;;;;;;;6.50;4.50;;;;;;;;;;4982963;28;24463;-71
2021/11/18 07:50:41;;;;;;;9.57;4.90;;;;;;;;;;4984938;28;24421;-70
2021/11/18 07:53:07;;;;;;;8.00;4.55;;;;;;;;;;4985208;28;24447;-70
2021/11/18 07:55:32;;;;;;;7.38;4.50;;;;;;;;;;4990467;28;24547;-70
2021/11/18 07:57:57;;;;;;;8.13;5.10;;;;;;;;;;4988411;28;24493;-71
2021/11/18 08:00:23;;;;;;;6.20;4.60;;;;;;;;;;4985384;28;24452;-70
2021/11/18 08:02:48;;;;;;;5.55;4.40;;;;;;;;;;4980805;28;24507;-71
2021/11/18 08:05:14;;;;;;;5.43;4.50;;;;;;;;;;4981832;28;24408;-71
2021/11/18 08:07:39;;;;;;;6.47;4.20;;;;;;;;;;4979868;28;24413;-71
2021/11/18 08:10:06;;;;;;;7.03;4.80;;;;;;;;;;4982684;28;24409;-73
2021/11/18 08:12:34;;;;;;;6.28;4.90;;;;;;;;;;4983696;28;24799;-71
2021/11/18 08:14:59;;;;;;;6.40;4.65;;;;;;;;;;4980829;28;24427;-71
2021/11/18 08:17:24;;;;;;;9.30;4.80;;;;;;;;;;4979754;28;24400;-72
2021/11/18 08:19:49;;;;;;;7.82;4.40;;;;;;;;;;4979547;28;25038;-73
2021/11/18 08:22:14;;;;;;;5.70;4.80;;;;;;;;;;4980343;28;24464;-71
2021/11/18 08:24:41;;;;;;;6.40;4.17;;;;;;;;;;4984955;28;24448;-70
2021/11/18 08:27:06;;;;;;;5.28;4.22;;;;;;;;;;4983311;28;24509;-71
2021/11/18 08:29:31;;;;;;;6.55;3.70;;;;;;;;;;4994073;28;24846;-71
2021/11/18 08:31:57;;;;;;;6.32;4.07;;;;;;;;;;4980187;28;24424;-70
2021/11/18 08:34:23;;;;;;;5.67;4.10;;;;;;;;;;4978197;28;24654;-71
2021/11/18 08:36:48;;;;;;;6.40;4.30;;;;;;;;;;4981058;28;24424;-70
2021/11/18 08:39:22;;;;;;;6.60;4.00;;;;;;;;;;4984393;28;24424;-71
2021/11/18 08:41:48;;;;;;;7.05;4.50;;;;;;;;;;4982707;28;25185;-70
2021/11/18 08:44:14;;;;;;;7.43;4.50;;;;;;;;;;4980264;28;24413;-70
2021/11/18 08:46:39;;;;;;;8.30;4.40;;;;;;;;;;4979828;28;24416;-72
2021/11/18 08:49:04;;;;;;;6.67;4.60;;;;;;;;;;4983999;28;24389;-72
2021/11/18 08:51:33;;;;;;;6.15;4.35;;;;;;;;;;4980895;28;24431;-72
2021/11/18 08:53:59;;;;;;;5.50;4.00;;;;;;;;;;4977933;28;24986;-72
2021/11/18 08:56:25;;;;;;;6.57;4.32;;;;;;;;;;4980540;28;24962;-70
2021/11/18 08:58:55;;;;;;;7.60;4.20;;;;;;;;;;4984468;28;24551;-70
2021/11/18 09:01:27;;;;;;;7.57;4.00;;;;;;;;;;4970662;28;24429;-72
2021/11/18 09:03:52;;;;;;;6.70;3.97;;;;;;;;;;4965041;28;24409;-71
2021/11/18 09:06:18;;;;;;;6.33;3.90;;;;;;;;;;4978330;28;24416;-70
2021/11/18 09:08:44;;;;;;;6.57;3.88;;;;;;;;;;4980297;28;24985;-72
2021/11/18 09:11:10;;;;;;;7.07;4.10;;;;;;;;;;4982224;28;24397;-72
2021/11/18 09:13:36;;;;;;;6.53;4.50;;;;;;;;;;4981989;28;24558;-71
2021/11/18 09:16:03;;;;;;;5.18;4.30;;;;;;;;;;4979684;28;24428;-71
2021/11/18 09:18:28;;;;;;;7.38;3.90;;;;;;;;;;4978277;28;24582;-71
2021/11/18 09:20:55;;;;;;;5.80;3.72;;;;;;;;;;4984185;28;24592;-72
2021/11/18 09:23:22;;;;;;;5.57;3.67;;;;;;;;;;4982107;28;24421;-72
2021/11/18 09:25:48;;;;;;;7.00;4.10;;;;;;;;;;4978263;28;24459;-72
2021/11/18 09:28:14;;;;;;;7.00;4.38;;;;;;;;;;4979561;28;24420;-72
2021/11/18 09:30:42;;;;;;;5.25;3.20;;;;;;;;;;4982423;28;24405;-72
2021/11/18 09:33:07;;;;;;;5.88;3.67;;;;;;;;;;4983633;28;24764;-72
2021/11/18 09:35:35;;;;;;;7.68;4.10;;;;;;;;;;4981739;28;25005;-72
2021/11/18 09:38:01;;;;;;;7.50;4.30;;;;;;;;;;4977875;28;25541;-71
2021/11/18 09:40:31;;;;;;;8.35;3.90;;;;;;;;;;4977377;28;24432;-72
2021/11/18 09:43:29;;;;;;;7.47;4.15;;;;;;;;;;4977301;28;24436;-71
2021/11/18 09:46:13;;;;;;;7.60;4.33;;;;;;;;;;4965821;28;24417;-72
2021/11/18 09:48:51;;;;;;;6.82;4.70;;;;;;;;;;4981733;28;24393;-73
2021/11/18 09:51:34;;;;;;;8.32;4.80;;;;;;;;;;4980573;28;25149;-73
2021/11/18 09:54:10;;;;;;;8.38;4.30;;;;;;;;;;4977189;28;24467;-73
2021/11/18 09:56:55;;;;;;;6.90;4.70;;;;;;;;;;4981358;28;24472;-72
2021/11/18 09:59:52;;;;;;;7.45;4.43;;;;;;;;;;4981305;28;24449;-70
2021/11/18 10:02:39;;;;;;;6.72;4.32;;;;;;;;;;4966982;28;24445;-72
2021/11/18 10:05:07;;;;;;;6.50;4.20;;;;;;;;;;4977140;28;24516;-70
2021/11/18 10:07:53;;;;;;;6.93;4.20;;;;;;;;;;4981530;28;24496;-70
2021/11/18 10:10:23;;;;;;;6.18;3.78;;;;;;;;;;4982659;28;24895;-71
2021/11/18 10:12:54;;;;;;;6.20;4.20;;;;;;;;;;4979951;28;24512;-70
2021/11/18 10:15:22;;;;;;;7.68;4.68;;;;;;;;;;4977110;28;24504;-70
2021/11/18 10:17:53;;;;;;;7.32;4.20;;;;;;;;;;4982951;28;24780;-71
2021/11/18 10:20:29;;;;;;;5.93;4.13;;;;;;;;;;4979400;28;24424;-70
2021/11/18 10:22:57;;;;;;;4.83;3.93;;;;;;;;;;4977753;28;24436;-70
2021/11/18 10:25:25;;;;;;;5.65;4.32;;;;;;;;;;4978353;28;25333;-70
2021/11/18 10:27:52;;;;;;;6.95;4.75;;;;;;;;;;4982142;28;24435;-71
2021/11/18 10:30:20;;;;;;;7.50;5.22;;;;;;;;;;4979591;28;24407;-70
2021/11/18 10:32:48;;;;;;;8.73;5.00;;;;;;;;;;4977322;28;24503;-70
2021/11/18 10:35:34;;;;;;;6.60;4.80;;;;;;;;;;4980653;28;24448;-71
2021/11/18 10:38:17;;;;;;;6.32;4.82;;;;;;;;;;4973890;28;24413;-71
2021/11/18 10:40:54;;;;;;;8.40;5.65;;;;;;;;;;4979771;28;24421;-71
2021/11/18 10:43:19;;;;;;;7.18;4.93;;;;;;;;;;4976576;28;24414;-71
2021/11/18 10:45:49;;;;;;;6.60;4.80;;;;;;;;;;4979215;28;24411;-71
2021/11/18 10:48:17;;;;;;;6.00;4.70;;;;;;;;;;4980648;28;24512;-70
2021/11/18 10:50:42;;;;;;;11.15;5.80;;;;;;;;;;4982904;28;24436;-70
2021/11/18 10:53:14;;;;;;;9.48;5.60;;;;;;;;;;4980744;28;24448;-72
2021/11/18 10:55:41;;;;;;;8.10;5.10;;;;;;;;;;4977506;28;24405;-70
2021/11/18 10:58:09;;;;;;;5.82;4.47;;;;;;;;;;4976901;28;24500;-70
2021/11/18 11:00:37;;;;;;;6.68;4.40;;;;;;;;;;4982547;28;25045;-71
2021/11/18 11:03:18;;;;;;;7.85;5.00;;;;;;;;;;4981029;28;24464;-70
2021/11/18 11:05:43;;;;;;;7.63;4.60;;;;;;;;;;4976806;28;24395;-71
2021/11/18 11:08:23;;;;;;;6.43;4.70;;;;;;;;;;4979495;28;24763;-70
2021/11/18 11:10:53;;;;;;;6.60;4.90;;;;;;;;;;4984374;28;24416;-71
2021/11/18 11:13:31;;;;;;;8.27;6.57;;;;;;;;;;4983706;28;25001;-72
2021/11/18 11:16:10;;;;;;;19.60;11.97;;;;;;;;;;4980499;28;24797;-70
2021/11/18 11:18:38;;;;;;;34.38;20.15;;;;;;;;;;4980847;28;24988;-72
2021/11/18 11:21:09;;;;;;;19.20;11.90;;;;;;;;;;4983841;28;24523;-71
2021/11/18 11:23:43;;;;;;;26.50;14.77;;;;;;;;;;4983348;28;24391;-71
2021/11/18 11:26:11;;;;;;;18.13;11.48;;;;;;;;;;4982432;28;24417;-70
2021/11/18 11:28:40;;;;;;;17.73;11.07;;;;;;;;;;4980614;28;24492;-73
2021/11/18 11:31:19;;;;;;;10.90;6.03;;;;;;;;;;4981485;28;24417;-73
2021/11/18 11:34:03;;;;;;;8.20;6.10;;;;;;;;;;4985659;28;25013;-72
2021/11/18 11:36:32;;;;;;;9.45;7.10;;;;;;;;;;4983299;28;24463;-71
2021/11/18 11:39:01;;;;;;;13.18;9.25;;;;;;;;;;4983132;28;24459;-72
2021/11/18 11:41:45;;;;;;;14.00;9.85;;;;;;;;;;4977085;28;24484;-71
2021/11/18 11:44:23;;;;;;;8.00;6.05;;;;;;;;;;4983403;28;24436;-72
2021/11/18 11:46:53;;;;;;;10.85;6.28;;;;;;;;;;4984872;28;24490;-71
2021/11/18 11:49:18;;;;;;;9.48;5.93;;;;;;;;;;4981501;28;24405;-72
2021/11/18 11:52:02;;;;;;;8.93;6.60;;;;;;;;;;4979698;28;24740;-68
2021/11/18 11:54:45;;;;;;;7.28;5.88;;;;;;;;;;4979506;28;25328;-74
2021/11/18 11:57:19;;;;;;;9.18;5.60;;;;;;;;;;4985271;28;24496;-72
2021/11/18 11:59:48;;;;;;;9.13;6.50;;;;;;;;;;4983529;28;24397;-73
2021/11/18 12:02:21;;;;;;;8.55;6.30;;;;;;;;;;4982862;28;24441;-71
2021/11/18 12:04:49;;;;;;;9.70;6.47;;;;;;;;;;4984921;28;24470;-71
2021/11/18 12:07:14;;;;;;;7.50;5.10;;;;;;;;;;4985580;28;24458;-71
2021/11/18 12:09:48;;;;;;;8.98;5.43;;;;;;;;;;4979849;28;24412;-72
2021/11/18 12:12:32;;;;;;;7.70;4.70;;;;;;;;;;4980802;28;24780;-70
2021/11/18 12:14:58;;;;;;;9.07;5.10;;;;;;;;;;4984171;28;24506;-71
2021/11/18 12:17:26;;;;;;;11.15;5.00;;;;;;;;;;4983238;28;24409;-70
2021/11/18 12:19:57;;;;;;;7.50;4.78;;;;;;;;;;4978923;28;24393;-71
2021/11/18 12:22:28;;;;;;;8.20;5.00;;;;;;;;;;4979595;28;24909;-71
2021/11/18 12:24:59;;;;;;;5.72;4.70;;;;;;;;;;4983132;28;24725;-71
2021/11/18 12:27:26;;;;;;;7.57;4.90;;;;;;;;;;4983137;28;24938;-71
2021/11/18 12:30:10;;;;;;;8.63;6.00;;;;;;;;;;4981567;28;24527;-72
2021/11/18 12:32:35;;;;;;;7.88;5.07;;;;;;;;;;4979267;28;24508;-72
2021/11/18 12:35:04;;;;;;;7.25;4.80;;;;;;;;;;4980449;28;24717;-71
2021/11/18 12:37:49;;;;;;;6.97;4.90;;;;;;;;;;4984668;28;24405;-71
2021/11/18 12:40:30;;;;;;;5.70;4.50;;;;;;;;;;4963229;28;24417;-71
2021/11/18 12:43:07;;;;;;;8.38;4.90;;;;;;;;;;4978685;28;24495;-71
2021/11/18 12:45:39;;;;;;;7.07;5.50;;;;;;;;;;4978148;28;24433;-72
2021/11/18 12:48:09;;;;;;;6.80;4.95;;;;;;;;;;4982339;28;24740;-71
2021/11/18 12:50:49;;;;;;;9.27;5.47;;;;;;;;;;4982396;28;24425;-72
2021/11/18 12:53:20;;;;;;;6.23;4.80;;;;;;;;;;4980000;28;25198;-72
2021/11/18 12:55:57;;;;;;;9.00;5.55;;;;;;;;;;4980343;28;24460;-71
2021/11/18 12:58:25;;;;;;;8.93;5.50;;;;;;;;;;4978455;28;24407;-73
2021/11/18 13:00:52;;;;;;;7.57;5.40;;;;;;;;;;4982293;28;24812;-73
2021/11/18 13:03:46;;;;;;;7.40;5.53;;;;;;;;;;4982133;28;24404;-72
2021/11/18 13:06:11;;;;;;;7.63;5.60;;;;;;;;;;4975624;28;24511;-70
2021/11/18 13:08:36;;;;;;;7.05;5.10;;;;;;;;;;4978242;28;25021;-70
2021/11/18 13:11:20;;;;;;;6.38;4.70;;;;;;;;;;4978291;28;24401;-71
2021/11/18 13:13:47;;;;;;;8.35;5.18;;;;;;;;;;4982082;28;24401;-70
2021/11/18 13:16:20;;;;;;;6.90;5.10;;;;;;;;;;4973088;28;24421;-70
2021/11/18 13:18:54;;;;;;;6.00;5.40;;;;;;;;;;4980198;28;25265;-70
2021/11/18 13:21:24;;;;;;;8.45;5.05;;;;;;;;;;4975750;28;24521;-71
2021/11/18 13:23:49;;;;;;;6.18;5.20;;;;;;;;;;4978870;28;25232;-71
2021/11/18 13:26:46;;;;;;;8.52;6.68;;;;;;;;;;4980510;28;25132;-71
2021/11/18 13:29:13;;;;;;;6.93;5.07;;;;;;;;;;4943862;28;24492;-70
2021/11/18 13:31:57;;;;;;;7.80;5.30;;;;;;;;;;4979478;28;24389;-71
2021/11/18 13:34:26;;;;;;;6.70;5.00;;;;;;;;;;4979646;28;24968;-71
2021/11/18 13:37:08;;;;;;;6.23;5.60;;;;;;;;;;4982352;28;24511;-71
2021/11/18 13:39:54;;;;;;;7.72;5.07;;;;;;;;;;4980506;28;24420;-71
2021/11/18 13:42:33;;;;;;;6.95;5.10;;;;;;;;;;4981067;28;24436;-73
2021/11/18 13:45:10;;;;;;;5.80;4.80;;;;;;;;;;4977028;28;24435;-72
2021/11/18 13:47:38;;;;;;;7.00;5.50;;;;;;;;;;4977259;28;25010;-73
2021/11/18 13:50:14;;;;;;;6.05;5.00;;;;;;;;;;4980267;28;24431;-74
2021/11/18 13:52:40;;;;;;;10.95;5.90;;;;;;;;;;4976396;28;25298;-73
2021/11/18 13:55:08;;;;;;;6.18;5.20;;;;;;;;;;4974921;28;24571;-74
2021/11/18 13:57:37;;;;;;;6.33;4.80;;;;;;;;;;4968072;28;24551;-73
2021/11/18 14:00:28;;;;;;;6.68;5.43;;;;;;;;;;4978038;28;25325;-72
2021/11/18 14:03:16;;;;;;;5.82;4.65;;;;;;;;;;4978368;28;24514;-73
2021/11/18 14:05:45;;;;;;;6.82;5.10;;;;;;;;;;4979987;28;24443;-72
2021/11/18 14:08:16;;;;;;;7.50;5.00;;;;;;;;;;4981107;28;24985;-72
2021/11/18 14:10:44;;;;;;;6.65;4.80;;;;;;;;;;4991549;28;24967;-74
2021/11/18 14:13:14;;;;;;;7.88;5.80;;;;;;;;;;4977188;28;24460;-74
2021/11/18 14:15:57;;;;;;;7.57;5.45;;;;;;;;;;4977726;28;24428;-71
2021/11/18 14:18:24;;;;;;;6.93;5.03;;;;;;;;;;4989673;28;24504;-71
2021/11/18 14:20:52;;;;;;;7.53;5.13;;;;;;;;;;4983991;28;24409;-69
2021/11/18 14:23:17;;;;;;;6.43;5.05;;;;;;;;;;4977242;28;24478;-70
2021/11/18 14:25:43;;;;;;;6.22;5.00;;;;;;;;;;4975478;28;24421;-70
2021/11/18 14:28:28;;;;;;;6.38;5.30;;;;;;;;;;4969287;28;24497;-72
2021/11/18 14:30:53;;;;;;;6.70;4.83;;;;;;;;;;4971633;28;24490;-70
2021/11/18 14:33:26;;;;;;;7.10;5.10;;;;;;;;;;4978945;28;24443;-73
2021/11/18 14:36:10;;;;;;;7.10;5.10;;;;;;;;;;4991057;28;24474;-71
2021/11/18 14:38:39;;;;;;;6.30;5.20;;;;;;;;;;4960145;28;24422;-69
2021/11/18 14:41:34;;;;;;;6.85;5.20;;;;;;;;;;4972534;28;24504;-70
2021/11/18 14:44:08;;;;;;;7.20;5.07;;;;;;;;;;4969139;28;24794;-72
2021/11/18 14:46:35;;;;;;;6.22;5.63;;;;;;;;;;4978116;28;25017;-71
2021/11/18 14:49:00;;;;;;;9.40;6.45;;;;;;;;;;4984026;28;24416;-71